| Date | Time | Temp. (oF) | Dew Point (oF) | Rel. Hum. (%) | Press. (in.) | Wind Dir. | Wind Speed (mph) | Hourly Rainfall (in.) |
|
|---|---|---|---|---|---|---|---|---|---|
| 1 | 08/03 | 00:00 | 79 | 77 | 95 | 29.99 | WSW | 0 | 0.00 |
| 2 | 08/02 | 23:00 | 81 | 77 | 88 | 29.98 | SW | 0 | 0.00 |
| 3 | 08/02 | 22:00 | 83 | 77 | 83 | 29.97 | SW | 0 | 0.00 |
| 4 | 08/02 | 21:00 | 87 | 78 | 75 | 29.96 | SW | 1 | 0.00 |
| 5 | 08/02 | 20:00 | 89 | 74 | 63 | 29.95 | SW | 1 | 0.00 |
| 6 | 08/02 | 19:00 | 90 | 73 | 58 | 29.95 | WSW | 1 | 0.00 |
| 7 | 08/02 | 18:00 | 91 | 74 | 58 | 29.95 | W | 4 | 0.00 |
| 8 | 08/02 | 17:00 | 93 | 73 | 54 | 29.95 | NW | 5 | 0.00 |
| 9 | 08/02 | 16:00 | 93 | 74 | 55 | 29.97 | WNW | 3 | 0.00 |
| 10 | 08/02 | 15:00 | 93 | 73 | 53 | 29.99 | NNW | 7 | 0.00 |
| 11 | 08/02 | 14:00 | 91 | 74 | 58 | 30.01 | N | 3 | 0.00 |
| 12 | 08/02 | 13:00 | 89 | 73 | 61 | 30.03 | SSW | 8 | 0.00 |
| 13 | 08/02 | 12:00 | 88 | 73 | 62 | 30.06 | N | 3 | 0.00 |
| 14 | 08/02 | 11:00 | 86 | 74 | 68 | 30.07 | W | 2 | 0.00 |
| 15 | 08/02 | 10:00 | 84 | 73 | 72 | 30.07 | NW | 3 | 0.00 |
| 16 | 08/02 | 09:00 | 79 | 74 | 87 | 30.07 | NNW | 3 | 0.00 |
| 17 | 08/02 | 08:00 | 72 | 72 | 100 | 30.07 | W | 0 | 0.00 |
| 18 | 08/02 | 07:00 | 69 | 68 | 100 | 30.05 | WNW | 0 | 0.00 |
| 19 | 08/02 | 06:00 | 69 | 68 | 100 | 30.04 | W | 0 | 0.00 |
| 20 | 08/02 | 05:00 | 70 | 69 | 100 | 30.03 | WSW | 0 | 0.00 |
| 21 | 08/02 | 04:00 | 71 | 70 | 98 | 30.03 | SSW | 2 | 0.00 |
| 22 | 08/02 | 03:00 | 72 | 71 | 97 | 30.04 | SSW | 0 | 0.00 |
| 23 | 08/02 | 02:00 | 73 | 71 | 96 | 30.05 | S | 0 | 0.00 |
| 24 | 08/02 | 01:00 | 74 | 72 | 94 | 30.07 | SW | 0 | 0.00 |